Time,TemperatureF,DewpointF,PressureIn,WindDirection,WindDirectionDegrees,WindSpeedMPH,WindSpeedGustMPH,Humidity,HourlyPrecipIn,Conditions,Clouds,dailyrainin,SoftwareType,DateUTC
2013-06-12 00:00:00,80.0,78.0,29.90,West,260,17.0,-999.0,92,-99.99,,,-99.99,,2013-06-12 04:00:00,
2013-06-12 00:12:00,80.0,78.0,29.90,West,260,17.0,-999.0,92,-99.99,,,-99.99,,2013-06-12 04:12:00,
2013-06-12 00:22:00,80.0,78.0,29.90,West,260,17.0,-999.0,92,-99.99,,,-99.99,,2013-06-12 04:22:00,
2013-06-12 00:33:00,80.0,78.0,29.90,West,260,17.0,-999.0,92,-99.99,,,-99.99,,2013-06-12 04:33:00,
2013-06-12 00:42:00,80.0,78.0,29.90,West,260,17.0,-999.0,92,-99.99,,,-99.99,,2013-06-12 04:42:00,
2013-06-12 00:52:00,80.0,78.0,29.90,West,260,17.0,-999.0,92,-99.99,,,-99.99,,2013-06-12 04:52:00,
2013-06-12 01:00:00,80.0,79.0,29.91,West,260,18.0,-999.0,94,-99.99,,,-99.99,,2013-06-12 05:00:00,
2013-06-12 01:11:00,80.0,79.0,29.91,West,260,18.0,-999.0,94,-99.99,,,-99.99,,2013-06-12 05:11:00,
2013-06-12 01:21:00,80.0,79.0,29.91,West,260,18.0,-999.0,94,-99.99,,,-99.99,,2013-06-12 05:21:00,
2013-06-12 01:32:00,80.0,79.0,29.91,West,260,18.0,-999.0,94,-99.99,,,-99.99,,2013-06-12 05:32:00,
2013-06-12 01:42:00,80.0,79.0,29.91,West,260,18.0,-999.0,94,-99.99,,,-99.99,,2013-06-12 05:42:00,
2013-06-12 01:51:00,80.0,79.0,29.91,West,260,18.0,-999.0,94,-99.99,,,-99.99,,2013-06-12 05:51:00,
2013-06-12 02:11:00,84.0,82.0,29.91,West,260,20.0,-999.0,93,-99.99,,,-99.99,,2013-06-12 06:11:00,
2013-06-12 02:21:00,84.0,82.0,29.91,West,260,20.0,-999.0,93,-99.99,,,-99.99,,2013-06-12 06:21:00,
2013-06-12 02:31:00,84.0,82.0,29.91,West,260,20.0,-999.0,93,-99.99,,,-99.99,,2013-06-12 06:31:00,
2013-06-12 02:42:00,84.0,82.0,29.91,West,260,20.0,-999.0,93,-99.99,,,-99.99,,2013-06-12 06:42:00,
2013-06-12 02:51:00,84.0,82.0,29.91,West,260,20.0,-999.0,93,-99.99,,,-99.99,,2013-06-12 06:51:00,
2013-06-12 03:00:00,84.0,82.0,29.91,West,270,21.0,-999.0,92,-99.99,,,-99.99,,2013-06-12 07:00:00,
2013-06-12 04:00:00,83.0,81.0,29.92,West,270,18.0,-999.0,93,-99.99,,,-99.99,,2013-06-12 08:00:00,
2013-06-12 04:22:00,83.0,81.0,29.92,West,270,18.0,-999.0,93,-99.99,,,-99.99,,2013-06-12 08:22:00,
2013-06-12 04:33:00,83.0,81.0,29.92,West,270,18.0,-999.0,93,-99.99,,,-99.99,,2013-06-12 08:33:00,
2013-06-12 04:42:00,83.0,81.0,29.92,West,270,18.0,-999.0,93,-99.99,,,-99.99,,2013-06-12 08:42:00,
2013-06-12 05:22:00,83.0,81.0,29.92,West,270,16.0,-999.0,93,-99.99,,,-99.99,,2013-06-12 09:22:00,
2013-06-12 06:22:00,84.0,81.0,29.93,West,270,14.0,-999.0,91,-99.99,,,-99.99,,2013-06-12 10:22:00,
2013-06-12 07:00:00,84.0,81.0,29.95,WNW,290,12.0,-999.0,91,-99.99,,,-99.99,,2013-06-12 11:00:00,
2013-06-12 07:23:00,84.0,81.0,29.95,WNW,290,12.0,-999.0,91,-99.99,,,-99.99,,2013-06-12 11:23:00,
2013-06-12 07:33:00,84.0,81.0,29.95,WNW,290,12.0,-999.0,91,-99.99,,,-99.99,,2013-06-12 11:33:00,
2013-06-12 07:42:00,84.0,81.0,29.95,WNW,290,12.0,-999.0,91,-99.99,,,-99.99,,2013-06-12 11:42:00,
2013-06-12 07:53:00,84.0,81.0,29.95,WNW,290,12.0,-999.0,91,-99.99,,,-99.99,,2013-06-12 11:53:00,
2013-06-12 13:00:00,85.0,79.0,29.98,West,280,12.0,-999.0,81,-99.99,,,-99.99,,2013-06-12 17:00:00,
2013-06-12 13:42:00,85.0,79.0,29.98,West,280,12.0,-999.0,81,-99.99,,,-99.99,,2013-06-12 17:42:00,
2013-06-12 13:52:00,85.0,79.0,29.98,West,280,12.0,-999.0,81,-99.99,,,-99.99,,2013-06-12 17:52:00,
2013-06-12 14:00:00,85.0,80.0,29.96,WSW,250,9.0,-999.0,84,-99.99,,,-99.99,,2013-06-12 18:00:00,
2013-06-12 14:42:00,85.0,80.0,29.96,WSW,250,9.0,-999.0,84,-99.99,,,-99.99,,2013-06-12 18:42:00,
2013-06-12 14:53:00,85.0,80.0,29.96,WSW,250,9.0,-999.0,84,-99.99,,,-99.99,,2013-06-12 18:53:00,
2013-06-12 16:00:00,85.0,82.0,29.96,WSW,240,12.0,-999.0,89,-99.99,,,-99.99,,2013-06-12 20:00:00,
2013-06-12 16:21:00,85.0,82.0,29.96,WSW,240,12.0,-999.0,89,-99.99,,,-99.99,,2013-06-12 20:21:00,
2013-06-12 16:32:00,85.0,82.0,29.96,WSW,240,12.0,-999.0,89,-99.99,,,-99.99,,2013-06-12 20:32:00,
2013-06-12 16:42:00,85.0,82.0,29.96,WSW,240,12.0,-999.0,89,-99.99,,,-99.99,,2013-06-12 20:42:00,
2013-06-12 16:53:00,85.0,82.0,29.96,WSW,240,12.0,-999.0,89,-99.99,,,-99.99,,2013-06-12 20:53:00,
2013-06-12 23:00:00,86.0,84.0,29.95,SW,220,17.0,-999.0,92,-99.99,,,-99.99,,2013-06-13 03:00:00,
2013-06-12 23:32:00,86.0,84.0,29.95,SW,220,17.0,-999.0,92,-99.99,,,-99.99,,2013-06-13 03:32:00,
2013-06-12 23:42:00,86.0,84.0,29.95,SW,220,17.0,-999.0,92,-99.99,,,-99.99,,2013-06-13 03:42:00,
2013-06-12 23:52:00,86.0,84.0,29.95,SW,220,17.0,-999.0,92,-99.99,,,-99.99,,2013-06-13 03:52:00,